createdAt,value
2022-09-09T00:01:50.121Z,48.97
2022-09-09T00:04:26.729Z,50.57
2022-09-09T00:07:03.269Z,52.10
2022-09-09T00:09:31.810Z,51.67
2022-09-09T00:12:04.865Z,53.17
2022-09-09T00:14:39.433Z,52.47
2022-09-09T00:17:11.452Z,52.90
2022-09-09T00:19:45.487Z,53.93
2022-09-09T00:22:18.201Z,54.17
2022-09-09T00:24:47.932Z,54.97
2022-09-09T00:27:21.673Z,55.77
2022-09-09T00:29:54.757Z,56.60
2022-09-09T00:32:24.345Z,55.20
2022-09-09T00:34:56.494Z,55.03
2022-09-09T00:37:27.384Z,55.40
2022-09-09T00:39:57.487Z,55.00
2022-09-09T00:42:27.316Z,53.07
2022-09-09T00:45:01.853Z,52.50
2022-09-09T00:47:41.515Z,52.63
2022-09-09T00:50:17.851Z,50.90
2022-09-09T00:52:49.680Z,49.40
2022-09-09T00:55:19.808Z,45.57
2022-09-09T00:57:48.282Z,46.43
2022-09-09T01:00:22.603Z,46.30
2022-09-09T01:03:12.599Z,45.67
2022-09-09T01:05:45.719Z,46.13
2022-09-09T01:08:22.490Z,43.17
2022-09-09T01:10:54.361Z,43.23
2022-09-09T01:13:27.788Z,42.33
2022-09-09T01:16:01.172Z,40.60
2022-09-09T01:18:36.367Z,37.60
2022-09-09T01:21:11.023Z,37.20
2022-09-09T01:23:47.926Z,38.60
2022-09-09T01:26:27.132Z,35.90
2022-09-09T01:28:57.383Z,35.43
2022-09-09T01:31:35.238Z,35.90
2022-09-09T01:34:02.851Z,35.67
2022-09-09T01:36:36.634Z,35.00
2022-09-09T01:39:04.463Z,36.93
2022-09-09T01:41:34.689Z,36.90
2022-09-09T01:44:09.681Z,35.40
2022-09-09T01:46:39.621Z,35.87
2022-09-09T01:49:13.767Z,34.77
2022-09-09T01:51:43.614Z,35.90
2022-09-09T01:54:14.272Z,34.27
2022-09-09T01:56:53.795Z,36.97
2022-09-09T01:59:31.970Z,35.73
2022-09-09T02:02:11.534Z,34.50
2022-09-09T02:04:46.658Z,36.57
2022-09-09T02:07:29.450Z,34.87
2022-09-09T02:10:02.199Z,34.40
2022-09-09T02:12:32.427Z,34.47
2022-09-09T02:15:07.502Z,36.20
2022-09-09T02:17:47.441Z,36.67
2022-09-09T02:20:17.754Z,34.90
2022-09-09T02:22:53.550Z,37.87
2022-09-09T02:25:24.836Z,37.20
2022-09-09T02:27:56.100Z,53.07
2022-09-09T02:30:24.112Z,35.63
2022-09-09T02:32:57.894Z,38.83
2022-09-09T02:35:34.911Z,36.10
2022-09-09T02:38:05.245Z,36.50
2022-09-09T02:40:33.584Z,35.80
2022-09-09T02:43:05.616Z,33.50
2022-09-09T02:45:39.212Z,36.60
2022-09-09T02:48:13.006Z,34.17
2022-09-09T02:50:52.021Z,35.00
2022-09-09T02:53:21.678Z,34.80
2022-09-09T02:55:50.784Z,36.03
2022-09-09T02:58:22.862Z,35.33
2022-09-09T03:00:59.362Z,35.80
2022-09-09T03:03:28.093Z,34.10
2022-09-09T03:05:57.849Z,34.90
2022-09-09T03:08:28.607Z,33.70
2022-09-09T03:11:00.386Z,31.57
2022-09-09T03:13:31.356Z,32.30
2022-09-09T03:15:58.952Z,32.07
2022-09-09T03:18:29.951Z,29.87
2022-09-09T03:21:00.421Z,30.80
2022-09-09T03:23:30.264Z,30.43
2022-09-09T03:26:01.042Z,30.23
2022-09-09T03:28:40.343Z,30.30
2022-09-09T03:31:11.159Z,30.70
2022-09-09T03:33:42.249Z,29.93
2022-09-09T03:36:12.524Z,28.33
2022-09-09T03:38:40.396Z,29.70
2022-09-09T03:41:08.780Z,28.00
2022-09-09T03:43:38.660Z,28.27
2022-09-09T03:46:07.956Z,28.20
2022-09-09T03:48:36.753Z,30.20
2022-09-09T03:51:06.333Z,30.53
2022-09-09T03:53:35.277Z,30.47
2022-09-09T03:56:04.675Z,29.70
2022-09-09T03:58:32.784Z,30.93
2022-09-09T04:01:09.550Z,29.87
2022-09-09T04:03:38.188Z,30.17
2022-09-09T04:06:07.710Z,28.03
2022-09-09T04:08:36.648Z,27.93
2022-09-09T04:11:07.276Z,27.90
2022-09-09T04:13:36.161Z,27.50
2022-09-09T04:16:05.109Z,29.07
2022-09-09T04:18:36.346Z,27.27
2022-09-09T04:21:06.249Z,27.20
2022-09-09T04:23:35.117Z,28.43
2022-09-09T04:26:04.128Z,29.13
2022-09-09T04:28:35.239Z,27.30
2022-09-09T04:31:06.939Z,26.97
2022-09-09T04:33:40.180Z,28.10
2022-09-09T04:36:09.093Z,25.20
2022-09-09T04:38:36.948Z,27.77
2022-09-09T04:41:05.822Z,25.93
2022-09-09T04:43:35.510Z,24.90
2022-09-09T04:46:05.845Z,25.80
2022-09-09T04:48:33.819Z,24.83
2022-09-09T04:51:06.032Z,27.03
2022-09-09T04:53:35.979Z,23.90
2022-09-09T04:56:05.535Z,25.53
2022-09-09T04:58:36.758Z,25.77
2022-09-09T05:01:08.004Z,27.47
2022-09-09T05:03:36.750Z,25.43
2022-09-09T05:06:10.518Z,24.77
2022-09-09T05:08:38.522Z,22.77
2022-09-09T05:11:06.337Z,23.60
2022-09-09T05:13:36.372Z,23.47
2022-09-09T05:16:06.663Z,23.13
2022-09-09T05:18:34.996Z,21.83
2022-09-09T05:21:02.661Z,23.90
2022-09-09T05:23:32.861Z,21.23
2022-09-09T05:26:00.742Z,23.50
2022-09-09T05:28:30.257Z,20.97
2022-09-09T05:30:59.364Z,23.50
2022-09-09T05:33:31.399Z,19.97
2022-09-09T05:36:00.894Z,20.97
2022-09-09T05:38:28.944Z,21.97
2022-09-09T05:40:59.625Z,21.20
2022-09-09T05:43:28.115Z,23.00
2022-09-09T05:46:05.185Z,23.27
2022-09-09T05:48:34.141Z,22.20
2022-09-09T05:51:03.696Z,21.87
2022-09-09T05:53:34.997Z,22.47
2022-09-09T05:56:06.077Z,22.77
2022-09-09T05:58:36.316Z,19.10
2022-09-09T06:01:08.700Z,19.90
2022-09-09T06:03:37.115Z,20.93
2022-09-09T06:06:07.129Z,20.63
2022-09-09T06:08:35.151Z,19.33
2022-09-09T06:11:05.651Z,19.63
2022-09-09T06:13:34.205Z,18.60
2022-09-09T06:16:01.744Z,18.80
2022-09-09T06:18:30.492Z,17.87
2022-09-09T06:20:59.211Z,18.30
2022-09-09T06:23:27.510Z,15.73
2022-09-09T06:26:06.461Z,15.90
2022-09-09T06:28:35.617Z,15.47
2022-09-09T06:31:05.168Z,13.83
2022-09-09T06:33:35.734Z,13.77
2022-09-09T06:36:04.639Z,13.10
2022-09-09T06:38:33.501Z,14.13
2022-09-09T06:41:02.803Z,13.03
2022-09-09T06:43:32.116Z,12.27
2022-09-09T06:46:02.752Z,14.30
2022-09-09T06:48:30.604Z,14.60
2022-09-09T06:51:06.071Z,13.10
2022-09-09T06:53:34.932Z,12.60
2022-09-09T06:56:03.244Z,11.93
2022-09-09T06:58:33.497Z,11.67
2022-09-09T07:01:06.223Z,12.33
2022-09-09T07:03:36.023Z,12.50
2022-09-09T07:06:05.176Z,10.80
2022-09-09T07:08:33.406Z,12.03
2022-09-09T07:11:10.223Z,12.00
2022-09-09T07:13:41.297Z,12.60
2022-09-09T07:16:11.591Z,12.40
2022-09-09T07:18:39.480Z,11.10
2022-09-09T07:21:09.547Z,10.60
2022-09-09T07:23:37.525Z,9.97
2022-09-09T07:26:10.348Z,10.57
2022-09-09T07:28:38.977Z,8.53
2022-09-09T07:31:08.828Z,9.07
2022-09-09T07:33:37.145Z,10.90
2022-09-09T07:36:08.064Z,9.77
2022-09-09T07:38:40.036Z,8.77
2022-09-09T07:41:09.610Z,8.90
2022-09-09T07:43:38.383Z,8.30
2022-09-09T07:46:06.980Z,9.13
2022-09-09T07:48:36.509Z,7.50
2022-09-09T07:51:12.627Z,7.77
2022-09-09T07:53:40.941Z,7.40
2022-09-09T07:56:10.202Z,7.57
2022-09-09T07:58:38.700Z,5.93
2022-09-09T08:01:11.189Z,6.60
2022-09-09T08:03:40.436Z,6.83
2022-09-09T08:06:09.987Z,7.47
2022-09-09T08:08:38.623Z,5.87
2022-09-09T08:11:09.902Z,5.77
2022-09-09T08:13:38.278Z,6.23
2022-09-09T08:16:09.021Z,5.70
2022-09-09T08:18:37.310Z,5.93
2022-09-09T08:21:14.209Z,5.60
2022-09-09T08:23:43.393Z,6.70
2022-09-09T08:26:14.875Z,6.20
2022-09-09T08:28:43.617Z,6.13
2022-09-09T08:31:13.524Z,6.30
2022-09-09T08:33:46.347Z,6.40
2022-09-09T08:36:17.128Z,5.13
2022-09-09T08:38:46.586Z,6.00
2022-09-09T08:41:41.735Z,6.30
2022-09-09T08:44:12.846Z,5.70
2022-09-09T08:46:48.155Z,5.90
2022-09-09T08:49:26.756Z,5.53
2022-09-09T08:51:58.230Z,6.30
2022-09-09T08:54:50.690Z,6.10
2022-09-09T08:57:20.286Z,5.80
2022-09-09T08:59:48.031Z,5.80
2022-09-09T09:02:18.167Z,7.03
2022-09-09T09:04:59.960Z,7.07
2022-09-09T09:07:42.858Z,6.30
2022-09-09T09:10:39.892Z,5.50
2022-09-09T09:13:04.309Z,5.60
2022-09-09T09:15:37.270Z,5.00
2022-09-09T09:18:06.018Z,5.33
2022-09-09T09:20:44.081Z,4.30
2022-09-09T09:23:23.727Z,5.17
2022-09-09T09:25:52.931Z,4.20
2022-09-09T09:28:25.565Z,4.73
2022-09-09T09:30:59.881Z,5.33
2022-09-09T09:33:30.403Z,3.90
2022-09-09T09:36:00.714Z,4.30
2022-09-09T09:41:19.446Z,3.40
2022-09-09T09:43:55.779Z,3.20
2022-09-09T09:46:26.633Z,4.00
2022-09-09T09:48:59.470Z,3.47
2022-09-09T09:51:28.704Z,3.17
2022-09-09T09:54:10.564Z,3.10
2022-09-09T09:56:40.259Z,2.20
2022-09-09T09:59:23.796Z,2.37
2022-09-09T10:02:16.799Z,3.13
2022-09-09T10:04:47.683Z,3.13
2022-09-09T10:07:20.349Z,2.57
2022-09-09T10:09:53.660Z,3.20
2022-09-09T10:12:29.832Z,2.63
2022-09-09T10:15:03.059Z,2.90
2022-09-09T10:17:36.543Z,2.50
2022-09-09T10:20:23.092Z,2.20
2022-09-09T10:22:53.513Z,3.00
2022-09-09T10:25:33.446Z,2.90
2022-09-09T10:28:19.132Z,2.30
2022-09-09T10:30:53.202Z,2.50
2022-09-09T10:33:24.858Z,2.83
2022-09-09T10:35:56.113Z,2.20
2022-09-09T10:38:26.372Z,1.77
2022-09-09T10:41:15.373Z,1.80
2022-09-09T10:44:12.144Z,2.17
2022-09-09T10:46:50.400Z,1.90
2022-09-09T10:49:27.780Z,2.20
2022-09-09T10:52:01.301Z,1.67
2022-09-09T10:54:40.386Z,4.10
2022-09-09T10:57:14.735Z,1.40
2022-09-09T10:59:45.014Z,2.00
2022-09-09T11:02:20.339Z,7.63
2022-09-09T11:04:51.715Z,1.90
2022-09-09T11:07:27.983Z,1.83
2022-09-09T11:10:02.154Z,1.40
2022-09-09T11:12:32.242Z,1.77
2022-09-09T11:15:03.791Z,1.63
2022-09-09T11:17:37.079Z,1.20
2022-09-09T11:20:07.762Z,1.57
2022-09-09T11:22:36.897Z,1.30
2022-09-09T11:25:07.979Z,2.40
2022-09-09T11:27:39.676Z,1.63
2022-09-09T11:30:32.039Z,2.53
2022-09-09T11:33:59.040Z,1.60
2022-09-09T11:36:40.968Z,2.10
2022-09-09T11:39:24.899Z,1.93
2022-09-09T11:41:52.448Z,1.70
2022-09-09T11:44:27.070Z,1.47
2022-09-09T11:46:54.652Z,2.00
2022-09-09T11:49:29.325Z,1.70
2022-09-09T11:51:56.922Z,1.70
2022-09-09T11:54:31.158Z,1.70
2022-09-09T11:56:59.053Z,1.60
2022-09-09T11:59:29.932Z,1.70
2022-09-09T12:01:59.077Z,2.03
2022-09-09T12:04:35.611Z,1.60
2022-09-09T12:07:06.805Z,2.13
2022-09-09T12:09:43.542Z,2.00
2022-09-09T12:12:29.022Z,1.43
2022-09-09T12:15:03.130Z,2.20
2022-09-09T12:17:32.380Z,1.90
2022-09-09T12:20:11.017Z,2.37
2022-09-09T12:22:47.354Z,1.70
2022-09-09T12:25:23.399Z,1.93
2022-09-09T12:28:03.541Z,1.37
2022-09-09T12:30:37.720Z,1.70
2022-09-09T12:33:11.922Z,1.88
2022-09-09T12:35:40.649Z,2.23
2022-09-09T12:38:12.299Z,1.80
2022-09-09T12:40:40.577Z,2.27
2022-09-09T12:43:19.470Z,1.83
2022-09-09T12:45:50.845Z,1.87
2022-09-09T12:48:20.815Z,1.90
2022-09-09T12:50:51.433Z,2.00
2022-09-09T12:53:26.543Z,2.10
2022-09-09T12:55:56.750Z,2.00
2022-09-09T12:58:24.497Z,2.37
2022-09-09T13:00:57.266Z,2.33
2022-09-09T13:03:25.830Z,2.10
2022-09-09T13:05:54.306Z,1.77
2022-09-09T13:08:22.407Z,2.53
2022-09-09T13:10:58.699Z,2.00
2022-09-09T13:13:32.210Z,2.70
2022-09-09T13:16:03.393Z,2.30
2022-09-09T13:18:32.295Z,1.77
2022-09-09T13:20:59.962Z,2.10
2022-09-09T13:23:31.090Z,3.13
2022-09-09T13:26:00.267Z,2.33
2022-09-09T13:28:34.451Z,2.27
2022-09-09T13:31:06.012Z,2.33
2022-09-09T13:33:35.742Z,2.70
2022-09-09T13:36:06.056Z,2.53
2022-09-09T13:38:35.654Z,2.30
2022-09-09T13:41:05.328Z,2.30
2022-09-09T13:43:36.331Z,2.73
2022-09-09T13:46:07.192Z,2.63
2022-09-09T13:48:34.908Z,3.50
2022-09-09T13:51:06.031Z,3.70
2022-09-09T13:53:34.059Z,4.53
2022-09-09T13:56:02.208Z,4.23
2022-09-09T13:58:30.113Z,3.73
2022-09-09T14:00:58.326Z,4.20
2022-09-09T14:03:27.322Z,3.80
2022-09-09T14:05:55.288Z,3.93
2022-09-09T14:08:26.527Z,3.93
2022-09-09T14:10:59.259Z,4.73
2022-09-09T14:13:26.913Z,4.20
2022-09-09T14:15:54.635Z,9.17
2022-09-09T14:18:23.442Z,4.10
2022-09-09T14:20:52.324Z,5.50
2022-09-09T14:23:20.274Z,10.67
2022-09-09T14:25:47.898Z,13.97
2022-09-09T14:28:16.080Z,6.50
2022-09-09T14:30:45.221Z,4.77
2022-09-09T14:33:15.212Z,5.00
2022-09-09T14:35:43.134Z,5.53
2022-09-09T14:38:16.912Z,5.13
2022-09-09T14:40:47.768Z,5.60
2022-09-09T14:43:15.795Z,5.10
2022-09-09T14:45:44.330Z,4.53
2022-09-09T14:48:11.945Z,4.93
2022-09-09T14:50:40.950Z,4.43
2022-09-09T14:53:09.662Z,4.40
2022-09-09T14:55:39.840Z,5.10
2022-09-09T14:58:07.733Z,6.93
2022-09-09T15:00:35.265Z,4.43
2022-09-09T15:03:02.886Z,5.13
2022-09-09T15:05:31.648Z,4.40
2022-09-09T15:07:59.653Z,5.23
2022-09-09T15:10:27.890Z,4.70
2022-09-09T15:12:57.668Z,4.77
2022-09-09T15:15:25.240Z,4.17
2022-09-09T15:17:53.003Z,4.73
2022-09-09T15:20:20.638Z,5.27
2022-09-09T15:22:48.365Z,3.90
2022-09-09T15:25:16.117Z,3.97
2022-09-09T15:27:43.835Z,3.63
2022-09-09T15:30:13.888Z,3.70
2022-09-09T15:32:41.537Z,3.90
2022-09-09T15:35:09.677Z,3.20
2022-09-09T15:37:37.263Z,3.20
2022-09-09T15:40:05.407Z,3.00
2022-09-09T15:42:33.135Z,2.60
2022-09-09T15:45:01.190Z,2.70
2022-09-09T15:47:30.258Z,3.00
2022-09-09T15:49:57.901Z,2.57
2022-09-09T15:52:25.641Z,2.47
2022-09-09T15:54:53.303Z,3.13
2022-09-09T15:57:20.843Z,2.47
2022-09-09T15:59:49.172Z,2.67
2022-09-09T16:02:16.927Z,2.60
2022-09-09T16:04:45.923Z,3.00
2022-09-09T16:07:14.455Z,2.83
2022-09-09T16:09:42.635Z,2.40
2022-09-09T16:12:10.874Z,2.73
2022-09-09T16:14:39.747Z,2.97
2022-09-09T16:17:07.952Z,2.97
2022-09-09T16:19:36.256Z,3.70
2022-09-09T16:22:07.488Z,3.23
2022-09-09T16:24:35.075Z,3.37
2022-09-09T16:27:02.645Z,2.90
2022-09-09T16:29:30.287Z,3.67
2022-09-09T16:32:02.856Z,2.30
2022-09-09T16:34:31.706Z,2.50
2022-09-09T16:36:59.266Z,2.47
2022-09-09T16:39:28.373Z,2.50
2022-09-09T16:41:55.980Z,2.13
2022-09-09T16:44:23.702Z,1.80
2022-09-09T16:46:56.722Z,2.73
2022-09-09T16:49:29.230Z,2.50
2022-09-09T16:51:59.541Z,2.60
2022-09-09T16:54:30.000Z,2.70
2022-09-09T16:56:58.400Z,3.30
2022-09-09T16:59:27.383Z,2.27
2022-09-09T17:01:55.688Z,2.00
2022-09-09T17:04:25.181Z,2.00
2022-09-09T17:06:54.612Z,2.70
2022-09-09T17:09:23.581Z,2.93
2022-09-09T17:11:53.571Z,2.77
2022-09-09T17:14:22.671Z,2.73
2022-09-09T17:16:50.440Z,2.40
2022-09-09T17:19:20.493Z,2.70
2022-09-09T17:24:39.238Z,2.67
2022-09-09T17:27:08.509Z,2.70
2022-09-09T17:29:36.855Z,2.67
2022-09-09T17:32:06.256Z,2.80
2022-09-09T17:34:34.017Z,3.10
2022-09-09T17:37:01.660Z,3.43
2022-09-09T17:39:29.886Z,3.77
2022-09-09T17:41:57.848Z,3.60
2022-09-09T17:44:27.293Z,3.70
2022-09-09T17:46:55.482Z,4.17
2022-09-09T17:49:23.173Z,6.20
2022-09-09T17:51:50.874Z,6.43
2022-09-09T17:54:20.034Z,7.20
2022-09-09T17:56:48.937Z,5.30
2022-09-09T17:59:18.880Z,5.47
2022-09-09T18:01:49.440Z,5.20
2022-09-09T18:04:18.174Z,7.47
2022-09-09T18:06:47.933Z,6.23
2022-09-09T18:09:17.206Z,5.33
2022-09-09T18:11:45.922Z,6.63
2022-09-09T18:14:17.376Z,5.90
2022-09-09T18:16:45.522Z,5.70
2022-09-09T18:19:17.554Z,6.57
2022-09-09T18:21:45.834Z,6.60
2022-09-09T18:24:14.968Z,7.40
2022-09-09T18:26:43.283Z,6.40
2022-09-09T18:29:12.830Z,6.90
2022-09-09T18:31:42.393Z,6.10
2022-09-09T18:34:12.018Z,6.60
2022-09-09T18:36:43.539Z,6.40
2022-09-09T18:39:12.364Z,7.10
2022-09-09T18:41:40.951Z,6.93
2022-09-09T18:44:10.502Z,8.10
2022-09-09T18:46:39.909Z,7.20
2022-09-09T18:49:07.988Z,7.80
2022-09-09T18:51:37.124Z,7.30
2022-09-09T18:54:07.990Z,7.40
2022-09-09T18:56:36.003Z,8.27
2022-09-09T18:59:07.202Z,8.27
2022-09-09T19:01:36.090Z,7.60
2022-09-09T19:04:04.388Z,8.00
2022-09-09T19:06:33.267Z,8.77
2022-09-09T19:09:03.849Z,7.90
2022-09-09T19:11:34.595Z,8.73
2022-09-09T19:14:03.862Z,8.13
2022-09-09T19:16:33.147Z,8.17
2022-09-09T19:19:01.652Z,8.50
2022-09-09T19:21:31.096Z,8.83
2022-09-09T19:24:00.835Z,7.70
2022-09-09T19:26:29.634Z,9.00
2022-09-09T19:29:00.191Z,8.97
2022-09-09T19:31:28.872Z,8.83
2022-09-09T19:33:57.145Z,9.50
2022-09-09T19:36:27.611Z,8.83
2022-09-09T19:38:55.491Z,9.80
2022-09-09T19:41:24.711Z,8.50
2022-09-09T19:43:52.637Z,7.47
2022-09-09T19:46:21.615Z,8.07
2022-09-09T19:48:49.457Z,8.23
2022-09-09T19:51:18.537Z,8.20
2022-09-09T19:53:48.421Z,9.00
2022-09-09T19:56:17.153Z,8.90
2022-09-09T19:58:47.138Z,7.97
2022-09-09T20:01:16.820Z,7.90
2022-09-09T20:03:48.263Z,8.10
2022-09-09T20:06:17.043Z,8.83
2022-09-09T20:08:46.015Z,8.50
2022-09-09T20:11:15.274Z,10.33
2022-09-09T20:13:43.313Z,8.53
2022-09-09T20:16:12.788Z,9.30
2022-09-09T20:18:45.354Z,8.53
2022-09-09T20:21:17.056Z,8.97
2022-09-09T20:23:46.225Z,7.83
2022-09-09T20:26:17.446Z,9.60
2022-09-09T20:28:46.978Z,9.67
2022-09-09T20:31:16.186Z,8.50
2022-09-09T20:33:44.579Z,9.33
2022-09-09T20:36:14.913Z,8.20
2022-09-09T20:38:43.424Z,9.03
2022-09-09T20:41:14.335Z,7.90
2022-09-09T20:43:47.705Z,8.30
2022-09-09T20:46:15.461Z,8.13
2022-09-09T20:48:43.189Z,8.23
2022-09-09T20:51:11.456Z,8.20
2022-09-09T20:53:40.653Z,8.00
2022-09-09T20:56:08.702Z,7.10
2022-09-09T20:58:36.975Z,7.33
2022-09-09T21:01:05.845Z,7.77
2022-09-09T21:03:37.751Z,7.80
2022-09-09T21:06:06.410Z,8.20
2022-09-09T21:08:34.827Z,7.07
2022-09-09T21:11:04.473Z,7.07
2022-09-09T21:13:32.946Z,6.67
2022-09-09T21:16:00.726Z,8.10
2022-09-09T21:18:29.188Z,6.83
2022-09-09T21:20:57.882Z,6.90
2022-09-09T21:23:25.905Z,6.40
2022-09-09T21:25:53.474Z,6.57
2022-09-09T21:28:22.688Z,6.07
2022-09-09T21:30:51.376Z,6.40
2022-09-09T21:33:22.342Z,6.07
2022-09-09T21:35:50.199Z,5.90
2022-09-09T21:38:20.962Z,6.97
2022-09-09T21:40:50.175Z,6.20
2022-09-09T21:43:19.261Z,6.73
2022-09-09T21:45:49.423Z,6.23
2022-09-09T21:48:18.457Z,6.50
2022-09-09T21:50:47.762Z,6.83
2022-09-09T21:53:18.154Z,5.83
2022-09-09T21:55:46.501Z,6.90
2022-09-09T21:58:14.559Z,7.27
2022-09-09T22:00:45.566Z,6.07
2022-09-09T22:03:15.760Z,6.07
2022-09-09T22:05:44.488Z,6.40
2022-09-09T22:08:13.484Z,6.23
2022-09-09T22:10:45.699Z,5.87
2022-09-09T22:13:14.189Z,6.67
2022-09-09T22:15:42.359Z,6.00
2022-09-09T22:18:10.317Z,6.30
2022-09-09T22:20:43.102Z,6.00
2022-09-09T22:23:11.081Z,6.33
2022-09-09T22:25:39.294Z,5.57
2022-09-09T22:28:09.189Z,5.47
2022-09-09T22:30:37.953Z,6.87
2022-09-09T22:33:05.961Z,5.90
2022-09-09T22:35:33.984Z,6.00
2022-09-09T22:38:03.613Z,6.57
2022-09-09T22:40:31.176Z,5.40
2022-09-09T22:42:59.227Z,6.20
2022-09-09T22:45:27.292Z,5.43
2022-09-09T22:47:54.857Z,5.10
2022-09-09T22:50:22.411Z,5.40
2022-09-09T22:52:49.947Z,5.40
2022-09-09T22:55:18.883Z,5.33
2022-09-09T22:57:46.885Z,5.60
2022-09-09T23:00:15.358Z,6.10
2022-09-09T23:02:43.127Z,6.33
2022-09-09T23:05:10.839Z,6.17
2022-09-09T23:07:38.675Z,5.60
2022-09-09T23:10:07.105Z,5.97
2022-09-09T23:12:35.998Z,6.30
2022-09-09T23:15:07.163Z,6.27
2022-09-09T23:17:34.696Z,5.43
2022-09-09T23:20:03.003Z,6.00
2022-09-09T23:22:31.012Z,6.27
2022-09-09T23:24:58.618Z,6.40
2022-09-09T23:27:26.115Z,5.93
2022-09-09T23:29:56.786Z,6.10
2022-09-09T23:32:24.696Z,5.57
2022-09-09T23:34:52.275Z,6.57
2022-09-09T23:37:20.129Z,6.57
2022-09-09T23:39:47.700Z,6.30
2022-09-09T23:42:15.439Z,6.07
2022-09-09T23:44:43.005Z,5.80
2022-09-09T23:47:11.866Z,6.03
2022-09-09T23:49:40.042Z,6.50
2022-09-09T23:52:07.984Z,6.20
2022-09-09T23:54:36.134Z,5.93
2022-09-09T23:57:04.319Z,5.00
2022-09-09T23:59:31.876Z,5.40
